createdAt,value
2023-12-14T00:02:28.674Z,3.72
2023-12-14T00:04:55.333Z,4.90
2023-12-14T00:07:21.978Z,5.28
2023-12-14T00:09:48.762Z,3.80
2023-12-14T00:12:15.444Z,5.40
2023-12-14T00:14:42.182Z,3.78
2023-12-14T00:17:08.890Z,4.90
2023-12-14T00:19:35.578Z,3.60
2023-12-14T00:22:02.515Z,5.45
2023-12-14T00:24:29.172Z,4.23
2023-12-14T00:26:55.793Z,6.03
2023-12-14T00:29:25.195Z,5.07
2023-12-14T00:31:54.490Z,3.53
2023-12-14T00:34:21.121Z,6.38
2023-12-14T00:36:47.947Z,5.00
2023-12-14T00:39:14.650Z,5.68
2023-12-14T00:41:43.452Z,4.53
2023-12-14T00:44:10.197Z,5.57
2023-12-14T00:46:37.061Z,4.70
2023-12-14T00:49:03.737Z,3.00
2023-12-14T00:51:32.622Z,3.53
2023-12-14T00:54:01.628Z,5.03
2023-12-14T00:56:30.585Z,3.42
2023-12-14T00:58:59.647Z,3.47
2023-12-14T01:01:26.331Z,4.60
2023-12-14T01:03:55.371Z,4.18
2023-12-14T01:06:22.047Z,5.15
2023-12-14T01:08:51.169Z,3.40
2023-12-14T01:11:20.300Z,3.47
2023-12-14T01:13:46.962Z,4.77
2023-12-14T01:16:15.985Z,4.53
2023-12-14T01:18:42.648Z,5.38
2023-12-14T01:21:09.305Z,4.70
2023-12-14T01:23:35.973Z,4.60
2023-12-14T01:26:02.704Z,3.20
2023-12-14T01:28:29.345Z,4.20
2023-12-14T01:30:58.296Z,5.90
2023-12-14T01:33:25.287Z,5.32
2023-12-14T01:35:54.135Z,2.58
2023-12-14T01:38:22.996Z,3.17
2023-12-14T01:40:49.621Z,4.30
2023-12-14T01:43:18.718Z,4.28
2023-12-14T01:45:48.332Z,3.65
2023-12-14T01:48:15.078Z,4.00
2023-12-14T01:50:44.153Z,3.97
2023-12-14T01:53:13.166Z,3.75
2023-12-14T01:55:40.089Z,4.18
2023-12-14T01:58:06.799Z,4.05
2023-12-14T02:00:47.152Z,3.88
2023-12-14T02:03:13.886Z,4.33
2023-12-14T02:05:40.537Z,7.40
2023-12-14T02:08:07.227Z,5.70
2023-12-14T02:10:33.958Z,5.13
2023-12-14T02:13:05.860Z,4.25
2023-12-14T02:15:34.812Z,4.23
2023-12-14T02:18:01.530Z,3.58
2023-12-14T02:20:28.257Z,3.10
2023-12-14T02:22:54.896Z,4.47
2023-12-14T02:25:25.098Z,4.97
2023-12-14T02:27:52.787Z,4.93
2023-12-14T02:30:21.798Z,7.72
2023-12-14T02:32:48.576Z,5.65
2023-12-14T02:35:15.290Z,3.65
2023-12-14T02:37:42.017Z,5.05
2023-12-14T02:40:09.557Z,4.60
2023-12-14T02:42:36.716Z,6.22
2023-12-14T02:45:04.606Z,6.88
2023-12-14T02:47:31.306Z,4.68
2023-12-14T02:49:58.068Z,4.43
2023-12-14T02:52:24.931Z,5.10
2023-12-14T02:54:51.546Z,6.40
2023-12-14T02:57:18.323Z,4.55
2023-12-14T02:59:44.985Z,5.85
2023-12-14T03:02:11.776Z,5.85
2023-12-14T03:04:44.170Z,4.03
2023-12-14T03:07:10.854Z,4.43
2023-12-14T03:09:45.330Z,3.80
2023-12-14T03:12:12.341Z,5.00
2023-12-14T03:14:43.732Z,4.85
2023-12-14T03:17:13.872Z,5.73
2023-12-14T03:19:42.310Z,6.00
2023-12-14T03:22:16.797Z,5.35
2023-12-14T03:24:43.746Z,6.03
2023-12-14T03:27:10.337Z,4.82
2023-12-14T03:29:36.934Z,7.57
2023-12-14T03:32:03.777Z,5.80
2023-12-14T03:34:32.655Z,4.78
2023-12-14T03:37:01.589Z,5.65
2023-12-14T03:39:28.636Z,6.63
2023-12-14T03:41:58.257Z,5.60
2023-12-14T03:44:25.261Z,6.10
2023-12-14T03:46:52.263Z,7.82
2023-12-14T03:49:18.970Z,5.43
2023-12-14T03:51:45.568Z,5.45
2023-12-14T03:54:12.304Z,5.93
2023-12-14T03:56:38.927Z,5.78
2023-12-14T03:59:05.589Z,5.50
2023-12-14T04:01:34.740Z,6.78
2023-12-14T04:04:01.405Z,5.22
2023-12-14T04:06:30.484Z,3.43
2023-12-14T04:08:57.188Z,5.05
2023-12-14T04:11:23.807Z,6.47
2023-12-14T04:13:51.896Z,5.68
2023-12-14T04:16:22.793Z,5.90
2023-12-14T04:18:53.457Z,7.07
2023-12-14T04:21:20.181Z,6.05
2023-12-14T04:23:46.986Z,5.88
2023-12-14T04:26:15.421Z,5.30
2023-12-14T04:28:45.797Z,4.60
2023-12-14T04:31:12.530Z,5.73
2023-12-14T04:33:39.210Z,5.95
2023-12-14T04:36:06.055Z,7.03
2023-12-14T04:38:32.627Z,4.35
2023-12-14T04:40:59.298Z,6.90
2023-12-14T04:43:25.968Z,5.43
2023-12-14T04:45:52.569Z,6.07
2023-12-14T04:48:19.283Z,6.57
2023-12-14T04:50:45.987Z,5.78
2023-12-14T04:53:12.650Z,6.85
2023-12-14T04:55:39.316Z,4.77
2023-12-14T04:58:06.009Z,5.32
2023-12-14T05:00:32.697Z,5.20
2023-12-14T05:02:59.323Z,7.57
2023-12-14T05:05:26.119Z,5.68
2023-12-14T05:07:52.775Z,4.60
2023-12-14T05:10:19.395Z,4.25
2023-12-14T05:12:45.994Z,5.85
2023-12-14T05:15:14.838Z,6.05
2023-12-14T05:17:41.698Z,6.13
2023-12-14T05:20:11.824Z,6.33
2023-12-14T05:22:38.736Z,5.20
2023-12-14T05:25:05.829Z,6.32
2023-12-14T05:27:32.550Z,6.60
2023-12-14T05:29:59.196Z,7.18
2023-12-14T05:32:28.248Z,7.77
2023-12-14T05:34:54.916Z,5.88
2023-12-14T05:37:21.547Z,4.95
2023-12-14T05:39:48.243Z,6.47
2023-12-14T05:42:18.296Z,5.82
2023-12-14T05:44:46.238Z,5.23
2023-12-14T05:47:12.935Z,6.40
2023-12-14T05:49:43.930Z,5.05
2023-12-14T05:52:11.282Z,6.82
2023-12-14T05:54:40.982Z,5.05
2023-12-14T05:57:10.060Z,5.97
2023-12-14T05:59:36.757Z,5.05
2023-12-14T06:02:03.731Z,6.07
2023-12-14T06:04:30.754Z,6.85
2023-12-14T06:06:57.757Z,7.00
2023-12-14T06:09:30.400Z,5.80
2023-12-14T06:11:57.023Z,6.25
2023-12-14T06:14:23.800Z,3.92
2023-12-14T06:16:50.424Z,5.10
2023-12-14T06:19:17.178Z,8.52
2023-12-14T06:21:46.186Z,6.33
2023-12-14T06:24:12.861Z,5.43
2023-12-14T06:26:45.416Z,4.50
2023-12-14T06:29:12.961Z,5.43
2023-12-14T06:31:40.205Z,5.72
2023-12-14T06:34:09.812Z,6.53
2023-12-14T06:36:36.619Z,5.65
2023-12-14T06:39:06.086Z,4.68
2023-12-14T06:41:36.076Z,4.53
2023-12-14T06:44:02.753Z,4.43
2023-12-14T06:46:31.615Z,5.30
2023-12-14T06:48:58.411Z,5.10
2023-12-14T06:51:25.555Z,5.53
2023-12-14T06:53:54.543Z,7.38
2023-12-14T06:56:21.197Z,5.93
2023-12-14T06:58:50.858Z,6.37
2023-12-14T07:01:21.224Z,4.65
2023-12-14T07:03:49.205Z,7.15
2023-12-14T07:06:19.273Z,6.70
2023-12-14T07:08:46.719Z,3.97
2023-12-14T07:11:13.618Z,3.83
2023-12-14T07:13:43.279Z,6.15
2023-12-14T07:16:13.016Z,5.90
2023-12-14T07:18:41.322Z,6.70
2023-12-14T07:21:09.096Z,5.50
2023-12-14T07:23:38.629Z,5.10
2023-12-14T07:26:07.138Z,5.63
2023-12-14T07:28:35.004Z,4.57
2023-12-14T07:31:01.737Z,6.30
2023-12-14T07:33:28.511Z,10.13
2023-12-14T07:35:55.608Z,11.30
2023-12-14T07:38:22.387Z,15.98
2023-12-14T07:40:51.295Z,10.88
2023-12-14T07:43:18.224Z,12.57
2023-12-14T07:45:45.511Z,7.90
2023-12-14T07:48:12.287Z,7.93
2023-12-14T07:50:39.433Z,8.52
2023-12-14T07:53:06.233Z,12.95
2023-12-14T07:55:32.966Z,7.72
2023-12-14T07:57:59.588Z,8.27
2023-12-14T08:00:26.685Z,10.57
2023-12-14T08:02:53.300Z,12.35
2023-12-14T08:05:22.754Z,8.85
2023-12-14T08:07:53.685Z,9.05
2023-12-14T08:10:20.749Z,9.20
2023-12-14T08:12:49.617Z,11.97
2023-12-14T08:15:16.396Z,11.10
2023-12-14T08:17:43.569Z,7.05
2023-12-14T08:20:12.869Z,7.35
2023-12-14T08:22:48.179Z,11.63
2023-12-14T08:25:15.889Z,8.03
2023-12-14T08:27:43.502Z,6.55
2023-12-14T08:30:13.862Z,7.97
2023-12-14T08:32:41.109Z,12.05
2023-12-14T08:35:08.463Z,12.85
2023-12-14T08:37:37.076Z,15.23
2023-12-14T08:40:06.885Z,11.48
2023-12-14T08:42:33.678Z,10.38
2023-12-14T08:45:00.480Z,7.80
2023-12-14T08:47:27.292Z,11.20
2023-12-14T08:49:54.463Z,8.67
2023-12-14T08:52:21.193Z,7.10
2023-12-14T08:54:48.124Z,7.75
2023-12-14T08:57:14.826Z,7.85
2023-12-14T08:59:44.793Z,11.18
2023-12-14T09:02:11.935Z,10.03
2023-12-14T09:04:39.304Z,8.70
2023-12-14T09:07:05.933Z,9.13
2023-12-14T09:09:35.120Z,6.15
2023-12-14T09:12:01.803Z,7.15
2023-12-14T09:14:30.961Z,5.77
2023-12-14T09:17:02.383Z,6.22
2023-12-14T09:19:31.153Z,5.63
2023-12-14T09:22:02.777Z,8.93
2023-12-14T09:24:30.142Z,7.53
2023-12-14T09:26:56.873Z,7.50
2023-12-14T09:29:25.925Z,5.70
2023-12-14T09:31:52.850Z,5.18
2023-12-14T09:34:19.747Z,5.38
2023-12-14T09:36:46.492Z,5.88
2023-12-14T09:39:13.115Z,6.87
2023-12-14T09:41:40.514Z,7.20
2023-12-14T09:44:08.227Z,6.38
2023-12-14T09:46:38.455Z,8.20
2023-12-14T09:49:08.608Z,11.10
2023-12-14T09:51:36.149Z,8.60
2023-12-14T09:54:02.780Z,9.00
2023-12-14T09:56:29.500Z,7.43
2023-12-14T09:58:56.241Z,7.55
2023-12-14T10:01:28.224Z,8.57
2023-12-14T10:04:11.162Z,6.83
2023-12-14T10:06:41.424Z,5.57
2023-12-14T10:09:14.648Z,6.93
2023-12-14T10:11:41.981Z,5.30
2023-12-14T10:14:29.008Z,8.93
2023-12-14T10:17:02.693Z,8.90
2023-12-14T10:19:30.489Z,15.07
2023-12-14T10:21:59.643Z,12.90
2023-12-14T10:24:26.662Z,21.20
2023-12-14T10:26:53.485Z,20.15
2023-12-14T10:29:20.322Z,16.73
2023-12-14T10:31:49.539Z,12.73
2023-12-14T10:34:16.474Z,18.80
2023-12-14T10:36:46.669Z,13.13
2023-12-14T10:39:16.883Z,12.20
2023-12-14T10:41:54.793Z,17.57
2023-12-14T10:44:47.654Z,11.60
2023-12-14T10:47:16.891Z,13.65
2023-12-14T10:49:53.462Z,18.08
2023-12-14T10:52:24.198Z,13.98
2023-12-14T10:54:59.583Z,13.60
2023-12-14T10:57:26.373Z,9.52
2023-12-14T11:00:00.940Z,10.95
2023-12-14T11:02:27.725Z,13.80
2023-12-14T11:05:10.767Z,20.40
2023-12-14T11:07:58.921Z,19.03
2023-12-14T11:10:37.331Z,15.15
2023-12-14T11:13:06.992Z,19.55
2023-12-14T11:15:37.150Z,11.90
2023-12-14T11:18:10.099Z,17.55
2023-12-14T11:20:46.440Z,12.43
2023-12-14T11:23:33.076Z,11.75
2023-12-14T11:26:04.680Z,11.75
2023-12-14T11:28:33.164Z,13.50
2023-12-14T11:31:00.123Z,10.93
2023-12-14T11:33:42.479Z,13.15
2023-12-14T11:36:13.365Z,14.83
2023-12-14T11:38:40.389Z,9.35
2023-12-14T11:41:07.061Z,7.15
2023-12-14T11:43:43.724Z,9.98
2023-12-14T11:46:15.142Z,11.80
2023-12-14T11:48:42.297Z,12.23
2023-12-14T11:51:12.540Z,13.68
2023-12-14T11:53:43.592Z,8.32
2023-12-14T11:56:10.630Z,8.57
2023-12-14T11:58:38.031Z,9.35
2023-12-14T12:01:19.694Z,10.07
2023-12-14T12:03:51.438Z,8.48
2023-12-14T12:06:31.958Z,10.63
2023-12-14T12:08:58.848Z,11.77
2023-12-14T12:11:31.569Z,12.18
2023-12-14T12:14:01.194Z,10.00
2023-12-14T12:16:27.886Z,10.88
2023-12-14T12:18:56.883Z,9.75
2023-12-14T12:21:26.410Z,9.50
2023-12-14T12:23:53.233Z,8.93
2023-12-14T12:26:22.036Z,15.33
2023-12-14T12:28:50.997Z,9.98
2023-12-14T12:31:17.854Z,12.02
2023-12-14T12:33:44.598Z,8.80
2023-12-14T12:36:11.840Z,10.00
2023-12-14T12:38:41.742Z,10.97
2023-12-14T12:41:08.706Z,12.07
2023-12-14T12:43:35.424Z,14.73
2023-12-14T12:46:02.065Z,18.17
2023-12-14T12:48:28.993Z,19.95
2023-12-14T12:50:55.973Z,19.60
2023-12-14T12:53:22.972Z,16.70
2023-12-14T12:55:49.688Z,16.77
2023-12-14T12:58:16.537Z,18.98
2023-12-14T13:00:43.197Z,9.68
2023-12-14T13:03:14.056Z,7.00
2023-12-14T13:05:40.859Z,11.82
2023-12-14T13:08:07.926Z,7.63
2023-12-14T13:10:34.719Z,10.55
2023-12-14T13:13:06.145Z,8.77
2023-12-14T13:15:36.423Z,6.27
2023-12-14T13:18:04.003Z,8.18
2023-12-14T13:20:30.984Z,4.38
2023-12-14T13:23:00.067Z,9.00
2023-12-14T13:25:27.683Z,5.68
2023-12-14T13:27:56.806Z,10.07
2023-12-14T13:30:24.406Z,7.15
2023-12-14T13:32:55.145Z,7.53
2023-12-14T13:35:23.524Z,8.95
2023-12-14T13:37:50.678Z,9.75
2023-12-14T13:40:19.883Z,9.20
2023-12-14T13:42:54.903Z,9.20
2023-12-14T13:45:31.669Z,6.90
2023-12-14T13:47:59.765Z,9.30
2023-12-14T13:50:29.004Z,15.07
2023-12-14T13:52:56.262Z,5.50
2023-12-14T13:55:23.252Z,10.70
2023-12-14T13:57:49.957Z,10.30
2023-12-14T14:00:17.606Z,8.63
2023-12-14T14:02:46.835Z,8.73
2023-12-14T14:05:13.667Z,7.23
2023-12-14T14:07:40.428Z,5.85
2023-12-14T14:10:07.947Z,10.25
2023-12-14T14:12:37.401Z,7.22
2023-12-14T14:15:07.074Z,9.40
2023-12-14T14:17:34.016Z,10.00
2023-12-14T14:20:00.890Z,9.88
2023-12-14T14:22:27.660Z,13.85
2023-12-14T14:24:54.272Z,15.02
2023-12-14T14:27:23.951Z,11.05
2023-12-14T14:29:56.809Z,13.00
2023-12-14T14:32:23.845Z,14.25
2023-12-14T14:34:50.837Z,12.75
2023-12-14T14:37:17.680Z,10.93
2023-12-14T14:39:44.453Z,11.70
2023-12-14T14:42:11.282Z,11.33
2023-12-14T14:45:00.032Z,9.35
2023-12-14T14:47:27.666Z,8.10
2023-12-14T14:49:57.962Z,10.85
2023-12-14T14:52:26.885Z,9.88
2023-12-14T14:54:55.890Z,10.50
2023-12-14T14:57:22.550Z,10.70
2023-12-14T14:59:51.393Z,12.45
2023-12-14T15:02:18.173Z,15.52
2023-12-14T15:04:45.019Z,13.63
2023-12-14T15:07:11.655Z,13.10
2023-12-14T15:09:40.851Z,9.20
2023-12-14T15:12:07.777Z,12.38
2023-12-14T15:14:34.516Z,13.90
2023-12-14T15:17:03.433Z,11.48
2023-12-14T15:19:30.093Z,12.33
2023-12-14T15:21:56.812Z,10.60
2023-12-14T15:24:23.639Z,10.82
2023-12-14T15:26:52.565Z,23.85
2023-12-14T15:29:22.544Z,26.55
2023-12-14T15:31:50.493Z,33.40
2023-12-14T15:34:19.610Z,33.35
2023-12-14T15:36:51.083Z,38.53
2023-12-14T15:39:18.530Z,23.33
2023-12-14T15:41:45.162Z,26.20
2023-12-14T15:44:16.590Z,25.67
2023-12-14T15:46:43.306Z,22.60
2023-12-14T15:49:12.445Z,13.75
2023-12-14T15:51:42.126Z,18.02
2023-12-14T15:54:08.772Z,16.75
2023-12-14T15:56:37.860Z,9.43
2023-12-14T15:59:05.253Z,8.30
2023-12-14T16:01:32.025Z,15.52
2023-12-14T16:03:58.698Z,16.67
2023-12-14T16:06:27.800Z,15.48
2023-12-14T16:08:54.418Z,21.03
2023-12-14T16:11:21.147Z,15.65
2023-12-14T16:13:49.642Z,18.88
2023-12-14T16:16:16.494Z,18.42
2023-12-14T16:18:43.079Z,12.80
2023-12-14T16:21:10.647Z,15.63
2023-12-14T16:23:38.769Z,15.07
2023-12-14T16:26:08.910Z,13.63
2023-12-14T16:28:35.633Z,12.82
2023-12-14T16:31:06.446Z,12.68
2023-12-14T16:33:34.118Z,15.47
2023-12-14T16:36:00.994Z,13.85
2023-12-14T16:38:27.641Z,15.50
2023-12-14T16:40:56.673Z,15.73
2023-12-14T16:43:23.695Z,12.05
2023-12-14T16:45:55.065Z,8.07
2023-12-14T16:48:24.830Z,11.40
2023-12-14T16:50:54.671Z,18.77
2023-12-14T16:53:22.501Z,10.63
2023-12-14T16:55:51.779Z,8.95
2023-12-14T16:58:20.753Z,8.50
2023-12-14T17:00:49.961Z,9.45
2023-12-14T17:03:16.686Z,11.95
2023-12-14T17:05:45.621Z,12.25
2023-12-14T17:08:12.347Z,12.35
2023-12-14T17:10:41.209Z,9.60
2023-12-14T17:13:07.866Z,12.85
2023-12-14T17:15:34.501Z,15.10
2023-12-14T17:18:01.274Z,12.55
2023-12-14T17:20:30.622Z,13.13
2023-12-14T17:22:57.443Z,10.97
2023-12-14T17:25:24.163Z,18.63
2023-12-14T17:27:50.935Z,32.55
2023-12-14T17:30:17.721Z,50.70
2023-12-14T17:32:44.468Z,51.72
2023-12-14T17:35:11.369Z,45.43
2023-12-14T17:37:40.350Z,39.70
2023-12-14T17:40:07.694Z,37.40
2023-12-14T17:42:36.720Z,37.17
2023-12-14T17:45:04.388Z,53.72
2023-12-14T17:47:31.197Z,50.10
2023-12-14T17:49:58.095Z,43.22
2023-12-14T17:52:27.033Z,35.60
2023-12-14T17:54:55.933Z,36.03
2023-12-14T17:57:22.647Z,35.40
2023-12-14T17:59:49.406Z,27.70
2023-12-14T18:02:16.087Z,30.02
2023-12-14T18:04:44.952Z,28.52
2023-12-14T18:07:11.742Z,23.48
2023-12-14T18:09:38.548Z,26.58
2023-12-14T18:12:05.605Z,20.90
2023-12-14T18:14:32.276Z,20.13
2023-12-14T18:16:58.992Z,46.92
2023-12-14T18:19:29.777Z,38.97
2023-12-14T18:21:59.082Z,35.30
2023-12-14T18:24:30.509Z,41.50
2023-12-14T18:26:57.164Z,29.95
2023-12-14T18:29:26.314Z,29.50
2023-12-14T18:31:56.012Z,27.08
2023-12-14T18:34:25.408Z,28.88
2023-12-14T18:36:52.191Z,24.70
2023-12-14T18:39:21.096Z,25.48
2023-12-14T18:41:51.626Z,29.95
2023-12-14T18:44:21.397Z,30.40
2023-12-14T18:46:50.299Z,23.45
2023-12-14T18:49:19.319Z,22.53
2023-12-14T18:51:48.155Z,22.35
2023-12-14T18:54:15.157Z,22.42
2023-12-14T18:56:41.895Z,21.38
2023-12-14T18:59:10.972Z,24.17
2023-12-14T19:01:37.681Z,26.13
2023-12-14T19:04:04.630Z,24.40
2023-12-14T19:06:31.241Z,28.45
2023-12-14T19:08:58.178Z,25.13
2023-12-14T19:11:25.330Z,23.48
2023-12-14T19:13:54.505Z,26.77
2023-12-14T19:16:26.668Z,28.40
2023-12-14T19:18:55.326Z,25.85
2023-12-14T19:21:25.027Z,24.42
2023-12-14T19:23:52.786Z,24.27
2023-12-14T19:26:20.894Z,21.17
2023-12-14T19:28:53.681Z,23.33
2023-12-14T19:31:23.839Z,21.52
2023-12-14T19:33:53.041Z,22.98
2023-12-14T19:36:20.250Z,25.70
2023-12-14T19:38:52.681Z,25.30
2023-12-14T19:41:19.405Z,24.88
2023-12-14T19:43:46.176Z,22.33
2023-12-14T19:46:16.538Z,24.75
2023-12-14T19:48:46.423Z,21.42
2023-12-14T19:51:15.412Z,22.30
2023-12-14T19:53:42.091Z,21.23
2023-12-14T19:56:11.012Z,23.70
2023-12-14T19:58:37.769Z,22.33
2023-12-14T20:01:07.167Z,22.38
2023-12-14T20:03:36.579Z,21.87
2023-12-14T20:06:05.251Z,21.23
2023-12-14T20:08:32.204Z,25.58
2023-12-14T20:10:58.958Z,25.98
2023-12-14T20:13:28.708Z,23.60
2023-12-14T20:15:57.784Z,23.53
2023-12-14T20:18:24.523Z,21.90
2023-12-14T20:20:52.243Z,23.00
2023-12-14T20:23:18.988Z,24.98
2023-12-14T20:25:45.766Z,23.67
2023-12-14T20:28:12.421Z,23.07
2023-12-14T20:30:39.213Z,23.67
2023-12-14T20:33:06.186Z,24.10
2023-12-14T20:35:37.379Z,24.10
2023-12-14T20:38:08.490Z,23.65
2023-12-14T20:40:37.730Z,22.67
2023-12-14T20:43:04.496Z,25.70
2023-12-14T20:45:31.489Z,23.80
2023-12-14T20:47:58.236Z,23.25
2023-12-14T20:50:25.009Z,22.98
2023-12-14T20:52:51.649Z,22.77
2023-12-14T20:55:18.441Z,22.83
2023-12-14T20:57:45.123Z,23.27
2023-12-14T21:00:12.078Z,22.23
2023-12-14T21:02:39.509Z,21.15
2023-12-14T21:05:07.555Z,21.83
2023-12-14T21:07:37.016Z,19.38
2023-12-14T21:10:04.368Z,23.25
2023-12-14T21:12:31.612Z,21.48
2023-12-14T21:14:58.294Z,21.17
2023-12-14T21:17:27.390Z,22.20
2023-12-14T21:19:54.657Z,21.40
2023-12-14T21:22:21.526Z,19.15
2023-12-14T21:24:50.374Z,19.98
2023-12-14T21:27:35.935Z,21.58
2023-12-14T21:30:02.833Z,18.60
2023-12-14T21:32:29.601Z,17.85
2023-12-14T21:34:56.343Z,19.83
2023-12-14T21:37:25.256Z,17.55
2023-12-14T21:39:52.017Z,16.45
2023-12-14T21:42:20.837Z,17.10
2023-12-14T21:44:49.911Z,18.75
2023-12-14T21:47:16.773Z,15.48
2023-12-14T21:49:43.465Z,19.52
2023-12-14T21:52:17.385Z,18.60
2023-12-14T21:54:46.363Z,16.30
2023-12-14T21:57:13.005Z,17.08
2023-12-14T21:59:39.737Z,20.10
2023-12-14T22:02:06.663Z,17.70
2023-12-14T22:04:33.320Z,16.23
2023-12-14T22:07:01.164Z,15.97
2023-12-14T22:09:30.328Z,16.75
2023-12-14T22:11:57.019Z,15.57
2023-12-14T22:14:23.805Z,16.27
2023-12-14T22:16:51.714Z,17.80
2023-12-14T22:19:20.818Z,15.53
2023-12-14T22:21:47.512Z,17.50
2023-12-14T22:24:14.166Z,14.13
2023-12-14T22:26:40.881Z,16.30
2023-12-14T22:29:07.808Z,15.48
2023-12-14T22:31:34.609Z,13.37
2023-12-14T22:34:01.612Z,14.73
2023-12-14T22:36:28.444Z,12.63
2023-12-14T22:39:06.442Z,15.07
2023-12-14T22:41:35.657Z,15.40
2023-12-14T22:44:02.408Z,13.10
2023-12-14T22:46:29.108Z,13.18
2023-12-14T22:48:55.842Z,13.38
2023-12-14T22:51:22.926Z,13.70
2023-12-14T22:53:49.671Z,13.60
2023-12-14T22:56:23.762Z,13.03
2023-12-14T22:58:51.374Z,13.70
2023-12-14T23:01:36.998Z,11.90
2023-12-14T23:04:05.163Z,13.45
2023-12-14T23:06:35.661Z,12.55
2023-12-14T23:09:03.296Z,12.47
2023-12-14T23:11:31.130Z,11.68
2023-12-14T23:13:58.925Z,15.07
2023-12-14T23:16:25.930Z,13.02
2023-12-14T23:18:54.847Z,13.32
2023-12-14T23:21:21.674Z,13.67
2023-12-14T23:23:50.381Z,14.40
2023-12-14T23:26:17.110Z,13.93
2023-12-14T23:28:43.823Z,12.00
2023-12-14T23:31:10.591Z,11.10
2023-12-14T23:33:39.593Z,11.03
2023-12-14T23:36:06.834Z,12.05
2023-12-14T23:38:33.535Z,11.35
2023-12-14T23:41:02.482Z,14.20
2023-12-14T23:43:29.364Z,13.70
2023-12-14T23:45:58.413Z,13.07
2023-12-14T23:48:25.142Z,12.40
2023-12-14T23:50:51.844Z,11.23
2023-12-14T23:53:18.530Z,11.27
2023-12-14T23:55:45.239Z,12.55
2023-12-14T23:58:11.928Z,10.90
